Date,TemperatureHighF,TemperatureAvgF,TemperatureLowF,DewpointHighF,DewpointAvgF,DewpointLowF,HumidityHigh,HumidityAvg,HumidityLow,PressureMaxIn,PressureMinIn,WindSpeedMaxMPH,WindSpeedAvgMPH,GustSpeedMaxMPH,PrecipitationSumIn
2012-1-10,42,38,34,15,13,9,44,35,26,0.00,0.00,0,0,0,0.00
2012-1-11,42,40,35,29,27,20,66,59,44,0.00,0.00,8,0,8,0.00
2012-1-12,75,52,35,42,24,14,72,40,14,0.00,0.00,20,2,20,0.00
2012-1-13,42,29,25,4,-4,-7,24,23,21,0.00,0.00,25,5,28,0.00
2012-1-14,53,35,25,13,3,-6,50,26,18,0.00,0.00,13,2,13,0.00
2012-1-15,58,38,22,17,6,-1,57,30,17,0.00,0.00,9,1,10,0.00
2012-1-16,48,31,18,9,6,1,56,37,19,0.00,0.00,12,1,12,0.00
2012-1-17,70,55,44,40,18,7,61,27,15,0.00,0.00,22,5,22,0.00
2012-1-18,58,38,28,12,2,-5,23,21,17,0.00,0.00,15,3,15,0.00
2012-1-19,58,34,17,13,4,-1,54,31,17,0.00,0.00,11,1,11,0.00
2012-1-20,56,43,31,20,9,-1,49,25,17,0.00,0.00,6,1,6,0.00
2012-1-21,50,42,34,34,26,19,69,54,33,0.00,0.00,7,1,7,0.00
2012-1-22,37,34,31,23,15,7,66,46,30,0.00,0.00,6,1,6,0.00
2012-1-23,54,42,34,29,23,17,63,48,26,0.00,0.00,25,2,25,0.00
2012-1-24,77,52,36,35,19,6,71,31,14,0.00,0.00,15,2,15,0.00
2012-1-25,77,47,26,26,16,6,63,34,15,28.88,0.00,10,1,10,19.13
2012-1-26,71,57,41,45,26,11,64,32,16,28.76,0.00,16,2,16,0.00
2012-1-27,69,53,0,27,13,0,28,19,15,28.70,0.00,22,5,22,0.31
2012-1-28,72,46,0,28,12,0,68,29,15,28.88,28.70,22,4,22,0.00
2012-1-29,26,25,24,-6,-7,-7,24,24,24,29.00,0.00,0,0,3,0.00
2012-1-30,69,49,35,22,8,0,25,19,15,29.00,28.94,13,2,13,0.00
2012-1-31,84,58,0,29,16,0,35,19,14,29.00,28.88,15,3,15,0.00
2012-2-1,81,54,0,39,23,0,62,33,14,28.85,28.73,15,1,15,0.04
2012-2-2,77,56,0,31,16,0,55,21,14,29.00,28.67,17,2,17,0.00
2012-2-3,78,44,0,26,13,0,64,32,14,29.15,0.00,8,0,8,0.00
2012-2-4,66,51,46,31,17,8,53,28,15,28.94,0.00,15,3,15,0.04
2012-2-5,42,38,33,27,23,18,64,55,40,28.91,28.67,5,1,5,0.00
2012-2-6,61,46,0,20,12,0,52,27,16,28.94,0.00,8,2,8,0.00
2012-2-7,75,49,0,26,10,0,44,22,14,28.85,28.79,8,2,8,0.00
2012-2-8,55,38,0,16,10,0,57,32,18,28.91,28.79,12,1,15,19.72
2012-2-9,62,40,0,15,4,-3,36,21,17,28.97,28.85,13,1,13,0.00
2012-2-10,57,39,0,19,10,0,56,33,17,28.82,0.00,10,1,10,0.00
2012-2-11,50,35,0,9,1,-13,30,22,19,28.73,28.47,24,4,24,0.00
2012-2-12,54,32,0,12,-2,-15,25,21,18,28.88,0.00,18,4,18,0.00
2012-2-13,51,34,21,9,-1,-10,25,22,19,28.94,0.00,6,0,6,0.00
2012-2-14,60,46,0,15,7,0,22,20,17,28.79,28.67,12,3,12,0.00
2012-2-15,80,52,0,28,14,0,50,24,14,28.94,0.00,6,1,7,0.00
2012-2-16,71,49,0,36,22,0,65,34,14,28.88,28.70,12,1,12,0.20
2012-2-17,75,53,0,25,12,0,29,20,14,28.82,0.00,13,2,13,0.00
2012-2-18,76,54,0,26,14,0,41,22,15,28.82,28.67,13,2,13,0.00
2012-2-19,43,33,0,23,15,0,60,46,20,28.70,0.00,6,1,6,0.08
2012-2-20,73,43,0,24,11,0,60,30,14,29.00,28.64,6,0,6,0.43
2012-2-21,65,45,0,16,10,0,57,26,15,28.94,28.64,17,3,17,0.00
2012-2-22,77,55,0,30,15,0,48,20,14,28.59,0.00,17,4,17,0.00
2012-2-23,81,58,0,37,24,0,62,29,14,28.38,28.26,15,2,15,0.12
2012-2-24,84,62,0,32,21,0,31,20,14,28.53,28.17,29,8,29,0.28
2012-2-25,51,38,0,9,2,-2,23,21,19,29.00,28.61,31,6,31,0.00
2012-2-26,69,42,0,19,5,-8,32,21,15,29.12,29.03,11,2,11,0.28
2012-2-27,49,36,26,9,3,-5,33,25,19,29.56,0.00,9,0,9,0.00
2012-2-28,85,61,38,29,16,2,24,17,13,0.00,0.00,9,1,9,0.00
2012-2-29,78,60,50,44,30,11,58,35,15,0.00,0.00,21,5,21,0.24
2012-3-1,83,65,48,29,18,8,19,17,14,0.00,0.00,24,5,24,0.00
2012-3-2,64,45,34,32,20,10,61,39,16,0.00,0.00,7,1,7,21.14
2012-3-3,72,55,45,32,13,6,61,19,15,0.00,0.00,19,3,19,0.24
2012-3-4,59,41,30,12,4,-2,28,21,17,0.00,0.00,19,4,19,0.00
2012-3-5,55,38,26,12,6,-3,42,27,18,0.00,0.00,26,4,26,0.00
2012-3-6,72,47,20,24,10,-2,50,25,14,0.00,0.00,14,2,14,0.00
2012-3-7,79,53,32,27,11,-1,28,19,15,0.00,0.00,19,3,19,0.00
2012-3-8,64,60,55,33,22,18,40,24,18,0.00,0.00,15,4,15,0.00
2012-3-9,69,52,43,43,14,4,62,24,15,0.00,0.00,19,3,19,0.16
2012-3-10,77,53,31,26,11,-2,28,19,14,0.00,0.00,8,2,8,0.00
2012-3-11,72,46,25,23,11,3,49,27,14,0.00,0.00,11,1,11,0.00
2012-3-12,75,60,35,25,19,10,40,20,16,0.00,0.00,23,4,23,0.00
2012-3-13,84,66,48,28,22,12,35,19,11,0.00,0.00,15,4,15,0.00
2012-3-14,97,68,37,33,24,14,55,22,11,0.00,0.00,8,1,9,0.00
2012-3-15,78,62,44,36,23,16,59,26,15,0.00,0.00,17,2,17,0.00
2012-3-16,90,64,50,47,32,21,65,36,13,0.00,0.00,11,1,11,0.04
2012-3-17,95,68,52,50,36,23,70,37,11,0.00,0.00,10,1,10,0.08
2012-3-18,72,62,53,51,36,23,69,41,16,0.00,0.00,4,0,4,0.00
2012-3-19,75,56,51,50,40,23,69,59,16,0.00,0.00,5,0,5,0.00
2012-3-21,48,48,47,37,36,36,66,65,64,0.00,0.00,0,0,0,0.00
2012-3-22,92,71,50,49,33,22,66,31,12,0.00,0.00,13,2,13,0.00
2012-3-23,95,68,51,49,32,22,61,30,11,0.00,0.00,16,2,16,0.00
2012-3-24,80,63,52,49,39,23,66,47,15,0.00,0.00,14,1,14,2.48
2012-3-25,60,57,53,46,38,25,71,52,26,0.00,0.00,9,1,9,0.31
2012-3-26,84,64,50,28,20,9,27,20,14,0.00,0.00,15,3,17,0.00
2012-3-27,49,39,30,15,8,1,51,30,19,0.00,0.00,7,1,7,0.00
2012-4-1,84,69,41,37,24,18,66,21,14,0.00,0.00,17,3,17,0.00
2012-4-2,67,65,62,30,24,19,29,21,17,0.00,0.00,17,4,17,0.00
2012-4-3,95,75,57,47,32,15,53,24,11,0.00,0.00,17,3,17,0.16
2012-4-4,101,72,51,41,28,20,66,23,10,0.00,0.00,11,2,15,0.00
2012-4-5,59,55,50,43,25,11,57,34,17,0.00,0.00,6,1,6,0.20
2012-4-6,83,62,44,29,18,6,53,20,14,0.00,0.00,11,3,11,0.00
2012-4-7,87,54,30,30,15,2,48,23,13,0.00,0.00,9,1,9,0.00
2012-4-8,85,63,40,29,18,4,24,17,13,0.00,0.00,15,3,20,0.00
2012-4-9,87,64,36,30,18,5,34,18,13,0.00,0.00,20,4,20,0.00
2012-4-10,81,61,40,28,16,4,26,18,14,0.00,0.00,21,4,27,0.00
2012-4-11,62,44,34,15,6,0,25,20,16,0.00,0.00,16,3,16,0.00
2012-4-12,61,44,29,15,9,2,42,25,16,0.00,0.00,8,2,11,0.00
2012-4-13,54,49,42,12,9,6,30,20,18,0.00,0.00,0,0,0,0.00
2012-4-14,88,66,34,31,22,13,53,22,13,0.00,0.00,15,3,15,0.00
2012-4-15,96,75,56,33,25,12,22,15,11,0.00,0.00,15,4,15,0.00
2012-4-16,98,78,62,35,30,24,36,19,11,0.00,0.00,13,4,15,0.00
2012-4-17,97,73,54,42,26,16,63,19,11,0.00,0.00,11,2,11,0.12
2012-4-18,54,50,49,42,38,32,69,62,49,0.00,0.00,4,0,4,0.98
2012-4-19,67,58,49,40,30,19,64,38,17,0.00,0.00,3,0,3,0.00
2012-4-20,87,67,51,45,31,20,66,32,13,0.00,0.00,10,2,11,0.00
2012-4-21,87,65,54,39,30,22,49,30,13,0.00,0.00,11,2,11,0.04
2012-4-22,59,57,53,40,30,23,61,39,25,0.00,0.00,4,0,4,0.12
2012-4-26,83,64,54,50,38,24,71,45,14,0.00,0.00,13,2,13,0.43
2012-4-27,90,62,46,33,24,14,49,25,12,0.00,0.00,10,1,10,0.00
2012-4-28,56,50,45,28,20,10,49,31,17,0.00,0.00,4,0,5,0.00
2012-4-29,91,67,46,42,30,20,60,28,12,0.00,0.00,4,0,4,0.00
2012-4-30,69,65,59,49,40,31,61,42,26,0.00,0.00,4,0,4,0.00
2012-5-1,84,72,62,50,39,25,63,35,14,0.00,0.00,10,1,10,0.31
2012-5-2,103,81,63,51,38,27,57,26,9,0.00,0.00,11,1,11,0.00
2012-5-3,100,73,59,54,34,22,65,29,10,0.00,0.00,10,0,10,0.00
2012-5-4,99,70,56,57,38,25,70,38,10,0.00,0.00,12,1,12,0.00
2012-5-5,92,69,59,53,41,24,70,42,12,0.00,0.00,4,0,4,0.00
2012-5-6,89,73,63,46,34,24,52,27,13,0.00,0.00,5,0,5,0.00
2012-5-7,75,67,63,43,36,27,48,33,18,0.00,0.00,5,0,5,0.00
2012-5-8,74,66,63,54,46,33,68,51,23,0.00,0.00,8,0,8,0.91
2012-5-9,68,60,52,57,46,30,71,62,32,0.00,0.00,5,0,5,0.51
2012-5-10,78,57,46,32,25,16,52,33,15,0.00,0.00,8,1,8,0.00
2012-5-11,86,61,39,38,23,12,69,28,13,0.00,0.00,8,1,8,0.00
2012-5-12,85,64,41,42,27,17,67,30,13,0.00,0.00,8,1,8,0.00
2012-5-13,73,63,51,46,36,23,64,41,16,0.00,0.00,8,1,8,0.08
2012-5-14,68,63,60,56,53,49,70,69,65,0.00,0.00,4,0,4,1.69
2012-5-15,70,64,63,50,48,40,64,55,38,0.00,0.00,5,0,5,0.24
2012-5-16,90,71,55,57,39,24,75,41,13,0.00,0.00,6,0,6,0.00
2012-5-17,84,69,54,54,36,23,74,36,13,0.00,0.00,3,0,4,0.00
2012-5-18,71,62,54,38,30,20,53,32,17,0.00,0.00,0,0,0,0.00
2012-5-19,82,63,47,50,32,20,72,38,14,0.00,0.00,4,0,4,0.00
2012-5-20,75,62,49,52,36,22,73,44,16,0.00,0.00,5,0,8,0.00
2012-5-21,93,70,56,52,37,24,69,36,12,0.00,0.00,6,0,6,0.08
2012-5-22,74,66,58,62,51,34,78,61,26,0.00,0.00,3,0,3,0.00
2012-5-23,80,67,60,54,42,24,67,43,15,0.00,0.00,5,0,5,0.31
2012-5-24,84,69,60,55,45,-20,70,47,14,0.00,0.00,4,0,5,0.28
2012-5-25,98,79,62,56,39,27,67,30,11,0.00,0.00,5,0,5,0.00
2012-5-26,96,74,59,59,42,28,69,40,11,0.00,0.00,4,0,4,0.00
2012-5-27,93,75,62,56,39,26,68,33,12,0.00,0.00,4,0,4,0.00
2012-5-28,95,80,67,56,36,27,64,24,11,0.00,0.00,9,1,9,0.00
2012-5-29,94,80,66,50,35,28,58,22,11,0.00,0.00,11,2,11,0.75
2012-5-30,93,74,60,58,36,24,74,31,12,0.00,0.00,8,1,8,0.00
2012-5-31,96,72,57,53,36,23,68,31,11,0.00,0.00,9,0,9,0.00
2012-6-1,85,68,59,49,39,26,56,37,13,0.00,0.00,13,2,13,0.08
2012-6-2,83,64,56,28,20,16,25,19,14,0.00,0.00,9,2,9,0.00
2012-6-3,87,69,46,46,27,18,68,24,13,0.00,0.00,14,2,14,0.00
2012-6-4,76,68,61,39,28,22,45,24,15,0.00,0.00,10,1,10,0.04
2012-6-5,80,67,60,43,28,22,54,24,15,0.00,0.00,5,0,5,0.04
2012-6-6,66,60,54,47,38,-11,68,47,5,0.00,0.00,4,0,4,0.51
2012-6-7,82,69,52,53,35,22,84,35,14,0.00,0.00,4,0,4,0.00
2012-6-8,92,72,52,58,38,24,85,38,12,0.00,0.00,6,0,6,0.00
2012-6-9,81,67,53,61,50,26,85,61,14,0.00,0.00,5,0,5,0.00
2012-6-10,91,73,59,65,47,27,83,51,12,0.00,0.00,7,0,7,0.00
2012-6-11,87,73,67,62,47,28,76,42,13,0.00,0.00,0,0,0,1.34
2012-6-12,94,75,69,66,57,30,81,60,11,0.00,0.00,0,0,0,0.59
2012-6-13,90,75,66,63,45,27,77,42,12,0.00,0.00,3,0,3,0.00
2012-6-14,88,68,55,52,37,23,71,39,13,0.00,0.00,0,0,0,0.00
2012-6-15,90,79,70,36,30,24,28,17,13,0.00,0.00,0,0,0,0.00
2012-6-17,89,74,59,53,37,23,69,31,13,0.00,0.00,0,0,0,0.00
2012-6-18,81,70,63,59,53,35,70,57,19,0.00,0.00,0,0,0,0.47
2012-6-19,100,77,64,69,49,28,78,48,10,0.00,0.00,7,0,7,0.00
2012-6-20,101,83,64,64,44,28,70,35,10,0.00,0.00,0,0,0,0.00
2012-6-21,100,81,66,66,42,29,73,31,10,0.00,0.00,0,0,0,0.00
2012-6-22,84,76,65,61,46,27,70,39,14,0.00,0.00,0,0,0,0.00
2012-6-23,97,81,64,60,38,27,70,27,11,0.00,0.00,0,0,0,0.00
2012-6-24,98,80,61,58,39,28,67,29,11,0.00,0.00,0,0,0,0.00
2012-6-25,92,76,63,63,39,24,71,35,12,0.00,0.00,0,0,0,0.00
2012-6-26,71,61,52,44,35,22,59,40,17,0.00,0.00,0,0,0,0.00
2012-6-27,96,77,51,48,30,20,68,22,11,0.00,0.00,0,0,0,0.00
2012-6-28,100,77,55,54,39,27,73,34,10,0.00,0.00,0,0,0,0.00
2012-6-29,111,92,73,55,35,24,43,15,8,0.00,0.00,0,0,0,0.00
2012-7-1,100,87,70,51,35,27,51,18,10,0.00,0.00,14,2,15,0.00
2012-7-2,101,82,65,63,42,27,72,33,10,0.00,0.00,8,0,8,0.16
2012-7-3,97,80,65,64,44,27,69,37,11,0.00,0.00,8,1,8,0.00
2012-7-4,72,72,72,51,51,50,48,47,46,0.00,0.00,0,0,0,0.00
2012-7-5,100,83,69,62,36,25,68,23,10,0.00,0.00,11,2,11,0.00
2012-7-6,105,88,66,52,37,30,50,20,9,0.00,0.00,5,0,5,0.00
2012-7-7,107,87,69,62,43,30,60,27,9,0.00,0.00,5,0,5,0.00
2012-7-8,108,92,70,62,39,31,66,21,8,0.00,0.00,8,1,8,0.00
2012-7-9,99,81,69,56,42,28,60,32,10,0.00,0.00,6,0,6,0.83
2012-7-10,87,74,69,59,45,27,65,40,13,0.00,0.00,4,0,4,0.08
2012-7-11,79,72,65,54,47,34,63,43,21,0.00,0.00,6,0,6,0.35
2012-7-12,83,73,62,54,39,28,64,32,16,0.00,0.00,4,0,4,0.00
2012-7-13,79,72,67,55,47,34,59,44,21,0.00,0.00,4,0,4,0.75
2012-7-14,95,79,69,62,47,31,66,39,11,0.00,0.00,8,1,8,0.00
2012-7-15,89,77,68,62,45,28,64,37,13,0.00,0.00,9,1,9,1.57
2012-7-16,101,80,68,62,44,30,67,35,10,0.00,0.00,8,1,8,0.55
2012-7-17,103,85,69,70,44,30,73,32,9,0.00,0.00,5,0,5,0.00
2012-7-18,93,76,69,60,50,36,63,41,18,0.00,0.00,9,0,9,0.16
2012-7-19,90,78,68,63,42,32,67,31,15,0.00,0.00,6,0,6,0.00
2012-7-20,90,74,66,54,48,35,62,41,15,0.00,0.00,5,0,5,0.31
2012-7-21,99,81,69,64,44,30,69,33,10,0.00,0.00,5,0,5,0.00
2012-7-22,81,74,69,58,52,38,61,48,23,0.00,0.00,4,0,4,0.59
2012-7-23,93,79,68,66,47,31,71,38,11,0.00,0.00,6,1,9,0.16
2012-7-24,82,76,69,54,39,29,56,28,17,0.00,0.00,17,2,17,0.08
2012-7-25,87,74,67,54,49,37,59,43,18,0.00,0.00,7,0,7,0.00
2012-7-26,106,87,74,54,38,30,49,20,9,0.00,0.00,9,2,9,0.00
2012-7-27,89,78,69,61,45,34,65,34,15,0.00,0.00,8,1,8,0.67
2012-7-28,101,82,64,59,41,29,72,33,10,0.00,0.00,8,1,8,0.00
2012-7-29,98,76,64,50,43,30,58,39,11,0.00,0.00,0,0,0,0.00
2012-7-30,98,82,73,42,36,28,33,21,11,0.00,0.00,0,0,0,0.00
2012-7-31,92,77,70,50,39,27,48,29,12,0.00,0.00,0,0,0,0.00
2012-8-1,70,68,65,52,50,48,60,53,47,0.00,0.00,0,0,0,0.00
2012-8-2,102,82,70,51,41,28,50,28,10,0.00,0.00,0,0,0,0.00
2012-8-3,95,78,65,58,43,29,63,34,11,0.00,0.00,0,0,0,0.00
2012-8-4,85,78,71,57,48,36,61,37,18,0.00,0.00,0,0,0,0.04
2012-8-5,98,80,72,51,40,29,45,26,11,0.00,0.00,9,0,9,0.00
2012-8-6,93,78,69,58,43,28,62,33,12,0.00,0.00,6,0,6,0.00
2012-8-7,98,78,67,58,46,29,63,37,11,0.00,0.00,0,0,0,0.00
2012-8-8,96,82,71,62,42,28,65,29,11,0.00,0.00,0,0,0,0.00
2012-8-9,97,81,64,56,40,28,65,29,11,0.00,0.00,6,0,6,0.00
2012-8-10,74,70,68,58,52,44,68,55,34,0.00,0.00,3,0,3,0.16
2012-8-11,88,72,66,59,48,31,70,46,16,0.00,0.00,4,0,4,0.98
2012-8-12,100,74,61,42,33,26,48,25,10,0.00,0.00,6,0,6,0.00
2012-8-13,99,77,58,47,36,28,59,29,11,0.00,0.00,7,1,7,0.00
2012-8-14,94,75,66,52,38,27,60,30,12,0.00,0.00,0,0,0,0.00
2012-8-15,93,74,66,56,42,27,66,36,12,0.00,0.00,0,0,0,0.00
2012-8-16,97,73,60,56,40,26,70,36,11,0.00,0.00,0,0,0,0.00
2012-8-17,99,75,61,57,41,29,63,35,10,0.00,0.00,0,0,0,0.00
2012-8-18,98,75,65,54,40,26,63,34,11,0.00,0.00,0,0,0,0.00
2012-8-19,67,65,63,56,49,42,68,58,46,0.00,0.00,0,0,0,1.65
2012-8-20,82,69,63,55,44,27,69,44,14,0.00,0.00,3,0,8,0.16
2012-8-21,89,68,58,55,41,25,70,42,13,0.00,0.00,4,0,5,0.04
2012-8-22,84,70,62,50,42,30,63,39,16,0.00,0.00,0,0,0,0.00
2012-8-23,94,70,60,57,44,30,65,44,12,0.00,0.00,0,0,0,0.00
2012-8-24,96,76,60,55,36,24,67,29,11,0.00,0.00,0,0,0,0.00
2012-8-25,87,70,56,53,33,24,63,31,13,0.00,0.00,0,0,0,0.00
2012-8-26,96,70,59,51,39,27,65,37,11,0.00,0.00,0,0,0,0.00
2012-8-27,103,80,59,60,42,0,70,35,9,0.00,0.00,0,0,0,0.00
2012-8-28,93,69,60,62,49,31,71,53,11,0.00,0.00,0,0,0,0.00
2012-8-29,104,76,63,61,45,30,71,43,9,0.00,0.00,3,0,3,0.04
2012-8-30,81,70,64,56,48,36,65,49,20,0.00,0.00,2,0,2,0.00
2012-8-31,108,79,65,64,46,30,71,41,8,0.00,0.00,6,0,6,0.00
2012-9-1,107,78,68,62,49,28,71,43,9,0.00,0.00,6,0,6,0.51
2012-9-2,81,72,68,64,54,44,70,56,31,0.00,0.00,5,0,5,0.47
2012-9-3,78,72,69,61,57,44,70,60,33,0.00,0.00,8,0,8,0.24
2012-9-4,82,74,70,63,55,36,71,56,20,0.00,0.00,5,0,5,0.98
2012-9-5,90,77,71,65,51,30,72,47,13,0.00,0.00,8,1,8,0.04
2012-9-6,99,76,69,62,47,28,70,42,10,0.00,0.00,4,0,4,0.12
2012-9-7,101,76,63,56,45,31,68,41,10,0.00,0.00,5,0,5,0.00
2012-9-8,93,73,65,62,39,23,72,36,11,0.00,0.00,9,1,9,0.00
2012-9-9,94,68,53,45,30,20,65,27,11,0.00,0.00,8,1,8,0.00
2012-9-10,83,63,52,51,32,20,72,38,14,0.00,0.00,4,0,4,0.00
2012-9-11,89,64,49,48,31,20,70,35,13,0.00,0.00,0,0,0,0.00
2012-9-12,95,63,50,53,38,27,70,46,11,0.00,0.00,0,0,0,0.00
2012-9-13,99,75,50,50,35,24,71,31,11,0.00,0.00,0,0,0,0.00
2012-9-14,91,63,49,49,38,27,63,46,12,0.00,0.00,0,0,0,0.00
2012-9-15,92,67,56,58,42,28,73,45,12,0.00,0.00,0,0,0,0.00
2012-9-16,64,61,58,48,43,37,69,54,38,0.00,0.00,0,0,0,0.28
2012-9-17,68,64,61,54,50,40,70,61,37,0.00,0.00,0,0,0,0.39
2012-9-18,73,68,64,59,52,36,71,58,26,0.00,0.00,15,2,15,2.20
2012-9-19,90,64,54,37,27,20,51,26,12,0.00,0.00,6,0,8,0.00
2012-9-20,91,68,50,49,34,23,65,35,12,0.00,0.00,0,0,0,0.00
2012-9-21,88,64,51,57,41,24,74,50,13,0.00,0.00,0,0,0,0.00
2012-9-22,98,77,64,36,30,24,35,19,11,0.00,0.00,12,1,12,0.00
2012-9-23,92,62,46,36,23,13,61,25,12,0.00,0.00,0,0,0,0.00
2012-9-24,92,58,38,42,25,14,73,33,12,0.00,0.00,0,0,0,0.00
2012-9-25,82,58,39,46,29,20,71,38,14,0.00,0.00,0,0,0,0.00
2012-9-26,98,70,56,49,36,25,64,34,11,0.00,0.00,0,0,0,0.00
2012-9-27,101,73,55,63,40,26,75,38,10,0.00,0.00,0,0,0,0.00
2012-9-28,90,68,59,54,42,24,70,43,12,0.00,0.00,0,0,0,0.31
2012-9-29,64,61,57,54,52,48,72,71,65,0.00,0.00,0,0,0,0.00
2012-9-30,84,58,45,54,39,23,79,58,14,0.00,0.00,0,0,0,0.00
2012-10-1,59,58,56,50,48,44,73,69,63,0.00,0.00,0,0,0,0.31
2012-10-3,88,69,63,58,45,25,75,46,13,0.00,0.00,0,0,0,0.00
2012-10-4,95,73,58,53,38,24,71,37,11,0.00,0.00,0,0,0,0.00
2012-10-5,85,61,48,56,40,25,76,55,13,0.00,0.00,0,0,0,0.00
2012-10-6,57,55,52,28,20,16,38,26,20,0.00,0.00,5,1,5,0.00
2012-10-7,52,49,46,39,34,24,71,56,38,0.00,0.00,0,0,5,0.31
2012-10-8,47,45,43,39,30,23,73,56,40,0.00,0.00,0,0,0,0.12
2012-10-9,82,55,45,37,28,17,70,38,15,0.00,0.00,0,0,0,0.04
2012-10-10,75,59,39,33,23,14,78,29,16,0.00,0.00,17,2,17,0.00
2012-10-11,46,45,44,18,16,14,35,31,29,0.00,0.00,4,0,4,0.00
2012-10-14,66,65,65,36,34,30,33,31,27,0.00,0.00,11,4,11,0.00
2012-10-15,84,68,58,52,32,13,72,33,14,0.00,0.00,15,3,15,0.47
2012-10-16,87,60,44,30,20,11,51,23,13,0.00,0.00,9,1,9,0.08
2012-10-17,86,53,37,39,26,14,68,43,13,0.00,0.00,0,0,0,0.00
2012-10-18,79,63,55,44,31,21,56,33,15,0.00,0.00,11,2,11,0.04
2012-10-19,85,59,44,51,33,14,80,48,13,0.00,0.00,13,1,13,0.00
2012-10-20,81,59,41,33,20,8,65,24,14,0.00,0.00,15,3,15,0.00
2012-10-21,87,51,34,47,25,13,83,44,13,0.00,0.00,6,1,6,0.00
2012-10-22,96,66,36,48,31,20,80,35,11,0.00,0.00,6,0,6,0.00
2012-10-23,96,66,42,53,32,19,75,38,11,0.00,0.00,8,1,8,0.00
2012-10-24,102,71,47,51,32,19,76,32,10,0.00,0.00,6,0,6,0.00
2012-10-25,98,65,44,56,34,20,76,42,11,0.00,0.00,13,0,13,0.00
2012-10-26,52,51,49,44,42,40,74,71,66,0.00,0.00,0,0,0,0.00
2012-10-27,79,63,57,52,38,23,74,45,15,0.00,0.00,6,1,6,0.00
2012-10-28,69,58,50,22,16,11,21,19,17,0.00,0.00,19,4,19,0.00
2012-10-29,44,42,40,12,7,4,32,23,20,0.00,0.00,27,6,27,0.12
2012-10-30,44,41,40,5,4,3,21,21,20,0.00,0.00,19,6,19,0.00
2012-11-6,37,36,36,9,8,8,32,30,30,0.00,0.00,0,0,0,0.00
2012-11-7,72,45,24,27,14,4,74,34,15,0.00,0.00,7,1,7,0.00
2012-11-8,60,46,38,15,7,1,21,20,17,0.00,0.00,10,2,10,0.00
2012-11-9,75,38,27,24,11,6,47,35,14,0.00,0.00,6,1,6,0.00
2012-11-10,94,61,29,33,25,13,74,36,11,0.00,0.00,5,1,5,0.00
2012-11-11,59,46,32,33,19,14,72,41,17,0.00,0.00,4,0,4,0.00
2012-11-12,65,61,59,42,33,29,50,35,26,0.00,0.00,9,3,11,0.00
2012-11-13,63,46,32,16,9,1,41,23,16,0.00,0.00,8,2,8,0.51
2012-11-14,60,40,24,27,11,0,76,37,17,0.00,0.00,6,1,6,0.00
2012-11-15,53,40,25,32,12,4,73,37,18,0.00,0.00,5,1,5,0.00
2012-11-17,58,47,36,13,7,0,22,20,17,0.00,0.00,6,2,6,0.00
2012-11-19,52,46,34,27,18,11,73,36,21,0.00,0.00,4,0,4,0.00
2012-11-20,75,48,32,36,24,14,75,47,15,0.00,0.00,4,0,4,0.00
2012-11-21,77,51,27,40,21,5,79,40,15,0.00,0.00,5,0,5,0.00
2012-11-22,35,33,31,12,10,6,43,37,31,0.00,0.00,0,0,0,0.00
2012-11-23,67,43,27,22,16,11,68,39,15,0.00,0.00,14,3,14,0.00
2012-11-24,56,40,32,12,3,-2,23,21,17,0.00,0.00,17,4,17,0.00
2012-11-25,70,47,23,23,8,-6,37,20,15,0.00,0.00,11,2,11,0.00
2012-11-28,65,56,44,17,12,6,20,17,15,0.00,0.00,13,3,13,0.00
2012-11-29,71,51,34,24,9,-1,22,19,15,0.00,0.00,7,1,7,0.00
2012-11-30,78,53,26,32,20,12,71,35,15,0.00,0.00,6,1,6,0.00
2012-12-3,86,70,60,29,23,18,19,17,13,0.00,0.00,9,2,9,0.00
2012-12-4,76,51,38,48,33,20,79,60,15,0.00,0.00,10,1,11,0.00
2012-12-5,70,50,32,23,11,1,38,21,15,0.00,0.00,13,2,13,0.00
2012-12-6,51,38,23,28,10,5,69,37,19,0.00,0.00,5,1,5,0.00
2012-12-11,59,45,37,12,6,1,23,20,17,0.00,0.00,15,2,15,0.00
2012-12-13,36,36,35,9,4,0,33,26,22,0.00,0.00,4,1,4,0.00
2012-12-15,51,51,51,10,10,10,19,19,19,0.00,0.00,9,3,9,0.00
2012-12-16,55,46,40,44,35,27,74,67,46,0.00,0.00,8,0,8,0.24
2012-12-17,58,52,44,41,32,22,72,50,25,0.00,0.00,9,1,9,0.00
2012-12-18,62,45,38,32,16,4,77,37,17,0.00,0.00,16,2,20,0.00
2012-12-20,37,31,29,27,23,20,74,71,60,0.00,0.00,4,0,4,0.00
2012-12-21,40,35,32,4,0,-2,23,22,21,0.00,0.00,19,6,23,0.75
2012-12-22,53,42,32,11,4,-2,23,21,18,0.00,0.00,25,6,27,0.00
2012-12-23,60,38,30,14,2,-3,23,21,17,0.00,0.00,6,2,6,0.00
2012-12-25,44,43,42,29,27,22,59,53,44,0.00,0.00,6,1,6,0.55
2012-12-26,40,35,34,30,25,10,82,68,30,0.00,0.00,11,1,11,1.46
2012-12-27,34,34,34,2,2,0,25,25,22,0.00,0.00,21,6,21,0.00
2012-12-28,37,34,30,16,8,1,53,35,22,0.00,0.00,2,0,2,0.00
2012-12-29,48,38,33,28,12,1,77,39,19,0.00,0.00,16,3,16,0.24
2012-12-30,32,30,29,-2,-4,-4,23,23,23,0.00,0.00,25,7,25,0.00
2012-12-31,53,39,26,11,4,-1,35,22,18,0.00,0.00,11,0,11,0.00
2013-1-1,54,48,43,31,11,6,61,23,18,0.00,0.00,10,2,10,0.08